sensor_id;sensor_type;location;lat;lon;timestamp;temperature;humidity
36498;DHT22;22513;51.222;6.480;2022-07-30T00:02:01;16.60;99.90
36498;DHT22;22513;51.222;6.480;2022-07-30T00:04:27;16.60;99.90
36498;DHT22;22513;51.222;6.480;2022-07-30T00:06:53;16.60;99.90
36498;DHT22;22513;51.222;6.480;2022-07-30T00:09:18;16.50;99.90
36498;DHT22;22513;51.222;6.480;2022-07-30T00:11:44;16.50;99.90
36498;DHT22;22513;51.222;6.480;2022-07-30T00:14:09;16.50;99.90
36498;DHT22;22513;51.222;6.480;2022-07-30T00:16:38;16.50;99.90
36498;DHT22;22513;51.222;6.480;2022-07-30T00:19:04;16.40;99.90
36498;DHT22;22513;51.222;6.480;2022-07-30T00:21:29;16.40;99.90
36498;DHT22;22513;51.222;6.480;2022-07-30T00:23:58;16.40;99.90
36498;DHT22;22513;51.222;6.480;2022-07-30T00:26:23;16.40;99.90
36498;DHT22;22513;51.222;6.480;2022-07-30T00:28:49;16.40;99.90
36498;DHT22;22513;51.222;6.480;2022-07-30T00:31:14;16.30;99.90
36498;DHT22;22513;51.222;6.480;2022-07-30T00:33:40;16.30;99.90
36498;DHT22;22513;51.222;6.480;2022-07-30T00:36:06;16.30;99.90
36498;DHT22;22513;51.222;6.480;2022-07-30T00:38:32;16.20;99.90
36498;DHT22;22513;51.222;6.480;2022-07-30T00:40:57;16.20;99.90
36498;DHT22;22513;51.222;6.480;2022-07-30T00:43:23;16.20;99.90
36498;DHT22;22513;51.222;6.480;2022-07-30T00:45:49;16.30;99.90
36498;DHT22;22513;51.222;6.480;2022-07-30T00:48:15;16.20;99.90
36498;DHT22;22513;51.222;6.480;2022-07-30T00:50:41;16.20;99.90
36498;DHT22;22513;51.222;6.480;2022-07-30T00:53:07;16.20;99.90
36498;DHT22;22513;51.222;6.480;2022-07-30T00:55:34;16.20;99.90
36498;DHT22;22513;51.222;6.480;2022-07-30T00:57:59;16.10;99.90
36498;DHT22;22513;51.222;6.480;2022-07-30T01:00:26;16.10;99.90
36498;DHT22;22513;51.222;6.480;2022-07-30T01:02:52;16.10;99.90
36498;DHT22;22513;51.222;6.480;2022-07-30T01:05:18;16.10;99.90
36498;DHT22;22513;51.222;6.480;2022-07-30T01:07:44;16.10;99.90
36498;DHT22;22513;51.222;6.480;2022-07-30T01:10:13;16.10;99.90
36498;DHT22;22513;51.222;6.480;2022-07-30T01:12:39;16.00;99.90
36498;DHT22;22513;51.222;6.480;2022-07-30T01:15:08;16.00;99.90
36498;DHT22;22513;51.222;6.480;2022-07-30T01:17:34;16.00;99.90
36498;DHT22;22513;51.222;6.480;2022-07-30T01:20:10;15.90;99.90
36498;DHT22;22513;51.222;6.480;2022-07-30T01:25:24;15.90;99.90
36498;DHT22;22513;51.222;6.480;2022-07-30T01:27:58;15.80;99.90
36498;DHT22;22513;51.222;6.480;2022-07-30T01:30:28;15.80;99.90
36498;DHT22;22513;51.222;6.480;2022-07-30T01:32:56;15.80;99.90
36498;DHT22;22513;51.222;6.480;2022-07-30T01:35:23;15.80;99.90
36498;DHT22;22513;51.222;6.480;2022-07-30T01:37:51;15.80;99.90
36498;DHT22;22513;51.222;6.480;2022-07-30T01:40:18;15.80;99.90
36498;DHT22;22513;51.222;6.480;2022-07-30T01:42:47;15.70;99.90
36498;DHT22;22513;51.222;6.480;2022-07-30T01:45:14;15.70;99.90
36498;DHT22;22513;51.222;6.480;2022-07-30T01:47:42;15.70;99.90
36498;DHT22;22513;51.222;6.480;2022-07-30T01:50:11;15.60;99.90
36498;DHT22;22513;51.222;6.480;2022-07-30T01:52:44;15.60;99.90
36498;DHT22;22513;51.222;6.480;2022-07-30T01:55:14;15.50;99.90
36498;DHT22;22513;51.222;6.480;2022-07-30T01:57:42;15.50;99.90
36498;DHT22;22513;51.222;6.480;2022-07-30T02:00:10;15.50;99.90
36498;DHT22;22513;51.222;6.480;2022-07-30T02:02:36;15.50;99.90
36498;DHT22;22513;51.222;6.480;2022-07-30T02:05:04;15.50;99.90
36498;DHT22;22513;51.222;6.480;2022-07-30T02:07:36;15.50;99.90
36498;DHT22;22513;51.222;6.480;2022-07-30T02:10:10;15.50;99.90
36498;DHT22;22513;51.222;6.480;2022-07-30T02:12:41;15.40;99.90
36498;DHT22;22513;51.222;6.480;2022-07-30T02:15:29;15.40;99.90
36498;DHT22;22513;51.222;6.480;2022-07-30T02:18:18;15.40;99.90
36498;DHT22;22513;51.222;6.480;2022-07-30T02:20:47;15.30;99.90
36498;DHT22;22513;51.222;6.480;2022-07-30T02:23:17;15.30;99.90
36498;DHT22;22513;51.222;6.480;2022-07-30T02:25:49;15.20;99.90
36498;DHT22;22513;51.222;6.480;2022-07-30T02:28:17;15.10;99.90
36498;DHT22;22513;51.222;6.480;2022-07-30T02:30:51;15.20;99.90
36498;DHT22;22513;51.222;6.480;2022-07-30T02:33:23;15.10;99.90
36498;DHT22;22513;51.222;6.480;2022-07-30T02:35:51;15.10;99.90
36498;DHT22;22513;51.222;6.480;2022-07-30T02:38:17;15.00;99.90
36498;DHT22;22513;51.222;6.480;2022-07-30T02:40:45;15.00;99.90
36498;DHT22;22513;51.222;6.480;2022-07-30T02:43:15;15.00;99.90
36498;DHT22;22513;51.222;6.480;2022-07-30T02:45:43;15.00;99.90
36498;DHT22;22513;51.222;6.480;2022-07-30T02:48:13;14.90;99.90
36498;DHT22;22513;51.222;6.480;2022-07-30T02:50:40;14.90;99.90
36498;DHT22;22513;51.222;6.480;2022-07-30T02:53:09;14.90;99.90
36498;DHT22;22513;51.222;6.480;2022-07-30T02:55:37;14.90;99.90
36498;DHT22;22513;51.222;6.480;2022-07-30T02:58:06;14.80;99.90
36498;DHT22;22513;51.222;6.480;2022-07-30T03:00:33;14.80;99.90
36498;DHT22;22513;51.222;6.480;2022-07-30T03:03:00;14.80;99.90
36498;DHT22;22513;51.222;6.480;2022-07-30T03:05:27;14.80;99.90
36498;DHT22;22513;51.222;6.480;2022-07-30T03:07:54;14.80;99.90
36498;DHT22;22513;51.222;6.480;2022-07-30T03:10:21;14.70;99.90
36498;DHT22;22513;51.222;6.480;2022-07-30T03:12:49;14.70;99.90
36498;DHT22;22513;51.222;6.480;2022-07-30T03:15:15;14.60;99.90
36498;DHT22;22513;51.222;6.480;2022-07-30T03:17:44;14.60;99.90
36498;DHT22;22513;51.222;6.480;2022-07-30T03:20:12;14.60;99.90
36498;DHT22;22513;51.222;6.480;2022-07-30T03:22:43;14.60;99.90
36498;DHT22;22513;51.222;6.480;2022-07-30T03:25:11;14.60;99.90
36498;DHT22;22513;51.222;6.480;2022-07-30T03:27:37;14.50;99.90
36498;DHT22;22513;51.222;6.480;2022-07-30T03:30:05;14.50;99.90
36498;DHT22;22513;51.222;6.480;2022-07-30T03:32:31;14.40;99.90
36498;DHT22;22513;51.222;6.480;2022-07-30T03:34:58;14.40;99.90
36498;DHT22;22513;51.222;6.480;2022-07-30T03:37:26;14.40;99.90
36498;DHT22;22513;51.222;6.480;2022-07-30T03:39:52;14.40;99.90
36498;DHT22;22513;51.222;6.480;2022-07-30T03:42:19;14.40;99.90
36498;DHT22;22513;51.222;6.480;2022-07-30T03:44:45;14.40;99.90
36498;DHT22;22513;51.222;6.480;2022-07-30T03:47:12;14.40;99.90
36498;DHT22;22513;51.222;6.480;2022-07-30T03:49:39;14.40;99.90
36498;DHT22;22513;51.222;6.480;2022-07-30T03:52:05;14.40;99.90
36498;DHT22;22513;51.222;6.480;2022-07-30T03:54:31;14.40;99.90
36498;DHT22;22513;51.222;6.480;2022-07-30T03:57:02;14.50;99.90
36498;DHT22;22513;51.222;6.480;2022-07-30T04:02:02;14.50;99.90
36498;DHT22;22513;51.222;6.480;2022-07-30T04:04:28;14.50;99.90
36498;DHT22;22513;51.222;6.480;2022-07-30T04:06:58;14.50;99.90
36498;DHT22;22513;51.222;6.480;2022-07-30T04:09:24;14.50;99.90
36498;DHT22;22513;51.222;6.480;2022-07-30T04:11:49;14.50;99.90
36498;DHT22;22513;51.222;6.480;2022-07-30T04:14:15;14.50;99.90
36498;DHT22;22513;51.222;6.480;2022-07-30T04:16:58;14.50;99.90
36498;DHT22;22513;51.222;6.480;2022-07-30T04:19:28;14.50;99.90
36498;DHT22;22513;51.222;6.480;2022-07-30T04:21:56;14.50;99.90
36498;DHT22;22513;51.222;6.480;2022-07-30T04:24:24;14.60;99.90
36498;DHT22;22513;51.222;6.480;2022-07-30T04:26:50;14.70;99.90
36498;DHT22;22513;51.222;6.480;2022-07-30T04:29:17;14.80;99.90
36498;DHT22;22513;51.222;6.480;2022-07-30T04:31:44;14.80;99.90
36498;DHT22;22513;51.222;6.480;2022-07-30T04:34:13;15.00;99.90
36498;DHT22;22513;51.222;6.480;2022-07-30T04:36:40;15.10;99.90
36498;DHT22;22513;51.222;6.480;2022-07-30T04:39:06;15.10;99.90
36498;DHT22;22513;51.222;6.480;2022-07-30T04:41:31;15.20;99.90
36498;DHT22;22513;51.222;6.480;2022-07-30T04:43:57;15.30;99.90
36498;DHT22;22513;51.222;6.480;2022-07-30T04:46:23;15.30;99.90
36498;DHT22;22513;51.222;6.480;2022-07-30T04:48:48;15.30;99.90
36498;DHT22;22513;51.222;6.480;2022-07-30T04:51:22;15.40;99.90
36498;DHT22;22513;51.222;6.480;2022-07-30T04:53:50;15.40;99.90
36498;DHT22;22513;51.222;6.480;2022-07-30T04:56:17;15.50;99.90
36498;DHT22;22513;51.222;6.480;2022-07-30T04:58:44;15.60;99.90
36498;DHT22;22513;51.222;6.480;2022-07-30T05:01:11;15.70;99.90
36498;DHT22;22513;51.222;6.480;2022-07-30T05:03:40;15.80;99.90
36498;DHT22;22513;51.222;6.480;2022-07-30T05:06:07;15.90;99.90
36498;DHT22;22513;51.222;6.480;2022-07-30T05:08:33;16.00;99.90
36498;DHT22;22513;51.222;6.480;2022-07-30T05:10:59;16.10;99.90
36498;DHT22;22513;51.222;6.480;2022-07-30T05:13:24;16.10;99.90
36498;DHT22;22513;51.222;6.480;2022-07-30T05:15:50;16.10;99.90
36498;DHT22;22513;51.222;6.480;2022-07-30T05:18:16;16.20;99.90
36498;DHT22;22513;51.222;6.480;2022-07-30T05:20:41;16.20;99.90
36498;DHT22;22513;51.222;6.480;2022-07-30T05:23:07;16.20;99.90
36498;DHT22;22513;51.222;6.480;2022-07-30T05:25:33;16.30;99.90
36498;DHT22;22513;51.222;6.480;2022-07-30T05:27:58;16.30;99.90
36498;DHT22;22513;51.222;6.480;2022-07-30T05:30:25;16.30;99.90
36498;DHT22;22513;51.222;6.480;2022-07-30T05:32:51;16.30;99.90
36498;DHT22;22513;51.222;6.480;2022-07-30T05:35:16;16.30;99.90
36498;DHT22;22513;51.222;6.480;2022-07-30T05:37:42;16.40;99.90
36498;DHT22;22513;51.222;6.480;2022-07-30T05:40:08;16.50;99.90
36498;DHT22;22513;51.222;6.480;2022-07-30T05:42:34;16.50;99.90
36498;DHT22;22513;51.222;6.480;2022-07-30T05:45:00;16.50;99.90
36498;DHT22;22513;51.222;6.480;2022-07-30T05:47:26;16.50;99.90
36498;DHT22;22513;51.222;6.480;2022-07-30T05:49:52;16.70;99.90
36498;DHT22;22513;51.222;6.480;2022-07-30T05:52:17;16.80;99.90
36498;DHT22;22513;51.222;6.480;2022-07-30T05:54:43;16.90;99.90
36498;DHT22;22513;51.222;6.480;2022-07-30T05:57:09;17.10;99.90
36498;DHT22;22513;51.222;6.480;2022-07-30T05:59:35;17.20;99.90
36498;DHT22;22513;51.222;6.480;2022-07-30T06:02:01;17.30;99.90
36498;DHT22;22513;51.222;6.480;2022-07-30T06:04:28;17.50;99.90
36498;DHT22;22513;51.222;6.480;2022-07-30T06:06:53;17.70;99.90
36498;DHT22;22513;51.222;6.480;2022-07-30T06:09:19;17.60;99.90
36498;DHT22;22513;51.222;6.480;2022-07-30T06:11:45;17.70;99.90
36498;DHT22;22513;51.222;6.480;2022-07-30T06:14:11;17.70;99.90
36498;DHT22;22513;51.222;6.480;2022-07-30T06:16:36;17.60;99.90
36498;DHT22;22513;51.222;6.480;2022-07-30T06:19:02;17.70;99.90
36498;DHT22;22513;51.222;6.480;2022-07-30T06:21:28;17.80;99.90
36498;DHT22;22513;51.222;6.480;2022-07-30T06:23:54;18.10;99.90
36498;DHT22;22513;51.222;6.480;2022-07-30T06:26:19;18.50;99.90
36498;DHT22;22513;51.222;6.480;2022-07-30T06:28:45;18.90;99.90
36498;DHT22;22513;51.222;6.480;2022-07-30T06:31:11;19.20;99.90
36498;DHT22;22513;51.222;6.480;2022-07-30T06:33:36;19.50;99.90
36498;DHT22;22513;51.222;6.480;2022-07-30T06:36:02;19.90;99.90
36498;DHT22;22513;51.222;6.480;2022-07-30T06:38:28;20.50;99.90
36498;DHT22;22513;51.222;6.480;2022-07-30T06:40:54;21.10;99.90
36498;DHT22;22513;51.222;6.480;2022-07-30T06:43:19;21.40;99.90
36498;DHT22;22513;51.222;6.480;2022-07-30T06:45:45;21.50;99.90
36498;DHT22;22513;51.222;6.480;2022-07-30T06:48:11;22.00;99.90
36498;DHT22;22513;51.222;6.480;2022-07-30T06:50:36;22.60;99.90
36498;DHT22;22513;51.222;6.480;2022-07-30T06:53:02;22.90;99.90
36498;DHT22;22513;51.222;6.480;2022-07-30T06:55:28;23.50;99.90
36498;DHT22;22513;51.222;6.480;2022-07-30T06:57:53;24.10;99.90
36498;DHT22;22513;51.222;6.480;2022-07-30T07:00:19;24.80;99.90
36498;DHT22;22513;51.222;6.480;2022-07-30T07:02:45;25.60;99.90
36498;DHT22;22513;51.222;6.480;2022-07-30T07:05:11;26.40;99.90
36498;DHT22;22513;51.222;6.480;2022-07-30T07:07:37;27.10;99.90
36498;DHT22;22513;51.222;6.480;2022-07-30T07:10:03;27.80;99.20
36498;DHT22;22513;51.222;6.480;2022-07-30T07:12:28;28.20;96.00
36498;DHT22;22513;51.222;6.480;2022-07-30T07:14:54;28.20;96.10
36498;DHT22;22513;51.222;6.480;2022-07-30T07:17:20;28.70;96.20
36498;DHT22;22513;51.222;6.480;2022-07-30T07:19:45;29.10;93.50
36498;DHT22;22513;51.222;6.480;2022-07-30T07:22:11;29.50;94.00
36498;DHT22;22513;51.222;6.480;2022-07-30T07:24:36;30.20;91.80
36498;DHT22;22513;51.222;6.480;2022-07-30T07:27:02;30.60;89.90
36498;DHT22;22513;51.222;6.480;2022-07-30T07:29:28;30.70;88.20
36498;DHT22;22513;51.222;6.480;2022-07-30T07:31:54;30.80;85.60
36498;DHT22;22513;51.222;6.480;2022-07-30T07:34:19;31.00;84.30
36498;DHT22;22513;51.222;6.480;2022-07-30T07:36:45;31.30;80.90
36498;DHT22;22513;51.222;6.480;2022-07-30T07:39:11;31.30;78.30
36498;DHT22;22513;51.222;6.480;2022-07-30T07:41:36;31.50;77.30
36498;DHT22;22513;51.222;6.480;2022-07-30T07:44:03;31.30;75.10
36498;DHT22;22513;51.222;6.480;2022-07-30T07:46:30;31.30;75.10
36498;DHT22;22513;51.222;6.480;2022-07-30T07:48:56;31.50;73.20
36498;DHT22;22513;51.222;6.480;2022-07-30T07:51:21;31.70;69.90
36498;DHT22;22513;51.222;6.480;2022-07-30T07:53:47;31.30;69.80
36498;DHT22;22513;51.222;6.480;2022-07-30T07:56:13;31.30;69.80
36498;DHT22;22513;51.222;6.480;2022-07-30T07:58:39;31.20;69.30
36498;DHT22;22513;51.222;6.480;2022-07-30T08:01:04;31.30;69.10
36498;DHT22;22513;51.222;6.480;2022-07-30T08:03:30;31.50;68.30
36498;DHT22;22513;51.222;6.480;2022-07-30T08:05:56;31.80;65.70
36498;DHT22;22513;51.222;6.480;2022-07-30T08:08:21;31.80;65.60
36498;DHT22;22513;51.222;6.480;2022-07-30T08:10:47;31.80;65.00
36498;DHT22;22513;51.222;6.480;2022-07-30T08:13:13;31.80;64.10
36498;DHT22;22513;51.222;6.480;2022-07-30T08:15:39;31.60;63.50
36498;DHT22;22513;51.222;6.480;2022-07-30T08:18:05;31.40;61.20
36498;DHT22;22513;51.222;6.480;2022-07-30T08:20:32;31.30;61.40
36498;DHT22;22513;51.222;6.480;2022-07-30T08:23:00;31.30;62.10
36498;DHT22;22513;51.222;6.480;2022-07-30T08:25:26;31.30;62.00
36498;DHT22;22513;51.222;6.480;2022-07-30T08:27:52;31.30;61.00
36498;DHT22;22513;51.222;6.480;2022-07-30T08:30:18;31.00;60.90
36498;DHT22;22513;51.222;6.480;2022-07-30T08:32:43;30.90;60.80
36498;DHT22;22513;51.222;6.480;2022-07-30T08:35:09;31.00;60.60
36498;DHT22;22513;51.222;6.480;2022-07-30T08:37:36;30.90;59.60
36498;DHT22;22513;51.222;6.480;2022-07-30T08:40:02;30.80;59.80
36498;DHT22;22513;51.222;6.480;2022-07-30T08:42:29;30.70;60.90
36498;DHT22;22513;51.222;6.480;2022-07-30T08:44:55;30.90;61.20
36498;DHT22;22513;51.222;6.480;2022-07-30T08:47:30;30.80;59.70
36498;DHT22;22513;51.222;6.480;2022-07-30T08:49:56;30.80;60.30
36498;DHT22;22513;51.222;6.480;2022-07-30T08:52:27;30.60;60.80
36498;DHT22;22513;51.222;6.480;2022-07-30T08:54:54;30.50;59.90
36498;DHT22;22513;51.222;6.480;2022-07-30T08:57:19;30.40;59.80
36498;DHT22;22513;51.222;6.480;2022-07-30T08:59:46;30.70;58.10
36498;DHT22;22513;51.222;6.480;2022-07-30T09:02:13;30.50;57.20
36498;DHT22;22513;51.222;6.480;2022-07-30T09:04:38;29.80;57.70
36498;DHT22;22513;51.222;6.480;2022-07-30T09:07:04;28.80;59.10
36498;DHT22;22513;51.222;6.480;2022-07-30T09:09:29;28.00;61.50
36498;DHT22;22513;51.222;6.480;2022-07-30T09:11:55;27.10;61.00
36498;DHT22;22513;51.222;6.480;2022-07-30T09:14:21;26.30;63.70
36498;DHT22;22513;51.222;6.480;2022-07-30T09:16:46;25.60;65.30
36498;DHT22;22513;51.222;6.480;2022-07-30T09:19:21;25.20;68.00
36498;DHT22;22513;51.222;6.480;2022-07-30T09:22:00;24.90;68.70
36498;DHT22;22513;51.222;6.480;2022-07-30T09:24:26;24.50;71.10
36498;DHT22;22513;51.222;6.480;2022-07-30T09:27:03;24.40;71.30
36498;DHT22;22513;51.222;6.480;2022-07-30T09:29:31;24.10;73.50
36498;DHT22;22513;51.222;6.480;2022-07-30T09:34:25;23.50;73.80
36498;DHT22;22513;51.222;6.480;2022-07-30T09:36:51;23.40;74.40
36498;DHT22;22513;51.222;6.480;2022-07-30T09:39:34;23.30;73.80
36498;DHT22;22513;51.222;6.480;2022-07-30T09:42:02;23.20;74.00
36498;DHT22;22513;51.222;6.480;2022-07-30T09:44:29;23.20;74.60
36498;DHT22;22513;51.222;6.480;2022-07-30T09:46:56;23.10;75.30
36498;DHT22;22513;51.222;6.480;2022-07-30T09:49:25;23.20;75.00
36498;DHT22;22513;51.222;6.480;2022-07-30T09:51:51;23.10;76.10
36498;DHT22;22513;51.222;6.480;2022-07-30T09:54:17;23.20;76.00
36498;DHT22;22513;51.222;6.480;2022-07-30T09:56:43;23.20;75.70
36498;DHT22;22513;51.222;6.480;2022-07-30T09:59:30;23.20;75.90
36498;DHT22;22513;51.222;6.480;2022-07-30T10:01:56;23.20;74.60
36498;DHT22;22513;51.222;6.480;2022-07-30T10:04:31;23.10;73.10
36498;DHT22;22513;51.222;6.480;2022-07-30T10:06:59;23.10;74.30
36498;DHT22;22513;51.222;6.480;2022-07-30T10:09:26;23.00;75.90
36498;DHT22;22513;51.222;6.480;2022-07-30T10:11:55;23.00;74.80
36498;DHT22;22513;51.222;6.480;2022-07-30T10:14:22;22.90;74.60
36498;DHT22;22513;51.222;6.480;2022-07-30T10:16:49;22.80;75.30
36498;DHT22;22513;51.222;6.480;2022-07-30T10:19:16;22.80;75.60
36498;DHT22;22513;51.222;6.480;2022-07-30T10:21:43;22.80;75.60
36498;DHT22;22513;51.222;6.480;2022-07-30T10:24:09;22.90;75.30
36498;DHT22;22513;51.222;6.480;2022-07-30T10:26:36;23.00;73.40
36498;DHT22;22513;51.222;6.480;2022-07-30T10:29:02;23.10;74.00
36498;DHT22;22513;51.222;6.480;2022-07-30T10:31:29;23.20;74.20
36498;DHT22;22513;51.222;6.480;2022-07-30T10:33:56;23.30;74.60
36498;DHT22;22513;51.222;6.480;2022-07-30T10:36:22;23.30;74.20
36498;DHT22;22513;51.222;6.480;2022-07-30T10:38:49;23.10;74.00
36498;DHT22;22513;51.222;6.480;2022-07-30T10:49:13;23.30;72.20
36498;DHT22;22513;51.222;6.480;2022-07-30T10:51:44;23.30;71.60
36498;DHT22;22513;51.222;6.480;2022-07-30T10:54:41;23.30;72.20
36498;DHT22;22513;51.222;6.480;2022-07-30T10:57:13;23.30;69.30
36498;DHT22;22513;51.222;6.480;2022-07-30T11:02:21;23.20;71.50
36498;DHT22;22513;51.222;6.480;2022-07-30T11:04:47;23.20;71.30
36498;DHT22;22513;51.222;6.480;2022-07-30T11:09:58;23.20;71.60
36498;DHT22;22513;51.222;6.480;2022-07-30T11:15:14;23.50;70.60
36498;DHT22;22513;51.222;6.480;2022-07-30T11:18:00;23.60;70.20
36498;DHT22;22513;51.222;6.480;2022-07-30T11:20:27;23.70;69.80
36498;DHT22;22513;51.222;6.480;2022-07-30T11:22:53;23.90;69.80
36498;DHT22;22513;51.222;6.480;2022-07-30T11:27:53;24.10;69.40
36498;DHT22;22513;51.222;6.480;2022-07-30T11:32:48;24.30;69.60
36498;DHT22;22513;51.222;6.480;2022-07-30T11:38:10;24.30;69.70
36498;DHT22;22513;51.222;6.480;2022-07-30T11:45:50;24.40;70.20
36498;DHT22;22513;51.222;6.480;2022-07-30T11:48:17;24.40;70.40
36498;DHT22;22513;51.222;6.480;2022-07-30T11:50:45;24.30;70.40
36498;DHT22;22513;51.222;6.480;2022-07-30T11:53:17;24.30;70.80
36498;DHT22;22513;51.222;6.480;2022-07-30T11:55:48;24.40;70.60
36498;DHT22;22513;51.222;6.480;2022-07-30T12:01:18;24.40;69.50
36498;DHT22;22513;51.222;6.480;2022-07-30T12:03:44;24.50;70.10
36498;DHT22;22513;51.222;6.480;2022-07-30T12:06:12;24.60;70.10
36498;DHT22;22513;51.222;6.480;2022-07-30T12:08:44;24.70;69.00
36498;DHT22;22513;51.222;6.480;2022-07-30T12:11:10;24.90;69.10
36498;DHT22;22513;51.222;6.480;2022-07-30T12:13:38;25.10;68.80
36498;DHT22;22513;51.222;6.480;2022-07-30T12:16:08;25.30;68.00
36498;DHT22;22513;51.222;6.480;2022-07-30T12:18:34;25.40;67.80
36498;DHT22;22513;51.222;6.480;2022-07-30T12:21:02;25.60;67.40
36498;DHT22;22513;51.222;6.480;2022-07-30T12:23:29;25.70;67.40
36498;DHT22;22513;51.222;6.480;2022-07-30T12:25:56;25.80;65.80
36498;DHT22;22513;51.222;6.480;2022-07-30T12:28:31;25.80;65.90
36498;DHT22;22513;51.222;6.480;2022-07-30T12:30:59;25.90;66.10
36498;DHT22;22513;51.222;6.480;2022-07-30T12:33:28;26.00;65.70
36498;DHT22;22513;51.222;6.480;2022-07-30T12:35:56;26.10;65.90
36498;DHT22;22513;51.222;6.480;2022-07-30T12:38:23;26.10;64.80
36498;DHT22;22513;51.222;6.480;2022-07-30T12:41:03;26.00;64.80
36498;DHT22;22513;51.222;6.480;2022-07-30T12:48:53;26.10;65.50
36498;DHT22;22513;51.222;6.480;2022-07-30T12:51:21;26.20;66.00
36498;DHT22;22513;51.222;6.480;2022-07-30T12:53:48;26.40;65.70
36498;DHT22;22513;51.222;6.480;2022-07-30T12:56:20;26.40;63.00
36498;DHT22;22513;51.222;6.480;2022-07-30T12:58:46;26.30;63.00
36498;DHT22;22513;51.222;6.480;2022-07-30T13:01:12;26.00;62.90
36498;DHT22;22513;51.222;6.480;2022-07-30T13:03:39;25.70;63.60
36498;DHT22;22513;51.222;6.480;2022-07-30T13:06:20;25.60;64.70
36498;DHT22;22513;51.222;6.480;2022-07-30T13:08:53;25.60;65.60
36498;DHT22;22513;51.222;6.480;2022-07-30T13:11:21;25.80;65.60
36498;DHT22;22513;51.222;6.480;2022-07-30T13:13:48;25.90;64.60
36498;DHT22;22513;51.222;6.480;2022-07-30T13:16:14;25.80;63.20
36498;DHT22;22513;51.222;6.480;2022-07-30T13:18:40;25.70;63.30
36498;DHT22;22513;51.222;6.480;2022-07-30T13:21:07;25.50;63.70
36498;DHT22;22513;51.222;6.480;2022-07-30T13:23:34;25.40;64.10
36498;DHT22;22513;51.222;6.480;2022-07-30T13:26:00;25.50;64.80
36498;DHT22;22513;51.222;6.480;2022-07-30T13:28:38;25.60;64.20
36498;DHT22;22513;51.222;6.480;2022-07-30T13:31:05;25.90;63.40
36498;DHT22;22513;51.222;6.480;2022-07-30T13:33:38;26.00;61.90
36498;DHT22;22513;51.222;6.480;2022-07-30T13:36:07;26.10;61.60
36498;DHT22;22513;51.222;6.480;2022-07-30T13:38:33;26.30;61.20
36498;DHT22;22513;51.222;6.480;2022-07-30T13:40:59;26.50;61.00
36498;DHT22;22513;51.222;6.480;2022-07-30T13:43:25;26.60;61.10
36498;DHT22;22513;51.222;6.480;2022-07-30T13:45:51;26.80;60.80
36498;DHT22;22513;51.222;6.480;2022-07-30T13:48:17;26.80;60.30
36498;DHT22;22513;51.222;6.480;2022-07-30T13:50:43;26.70;60.00
36498;DHT22;22513;51.222;6.480;2022-07-30T13:53:10;26.60;60.60
36498;DHT22;22513;51.222;6.480;2022-07-30T13:55:39;26.60;60.50
36498;DHT22;22513;51.222;6.480;2022-07-30T13:58:07;26.80;60.80
36498;DHT22;22513;51.222;6.480;2022-07-30T14:00:33;26.90;60.90
36498;DHT22;22513;51.222;6.480;2022-07-30T14:03:02;27.10;60.30
36498;DHT22;22513;51.222;6.480;2022-07-30T14:05:28;27.30;59.30
36498;DHT22;22513;51.222;6.480;2022-07-30T14:07:54;27.30;59.00
36498;DHT22;22513;51.222;6.480;2022-07-30T14:10:23;27.30;59.30
36498;DHT22;22513;51.222;6.480;2022-07-30T14:12:50;27.40;59.30
36498;DHT22;22513;51.222;6.480;2022-07-30T14:15:19;27.40;59.00
36498;DHT22;22513;51.222;6.480;2022-07-30T14:17:45;27.30;59.30
36498;DHT22;22513;51.222;6.480;2022-07-30T14:20:11;27.10;59.30
36498;DHT22;22513;51.222;6.480;2022-07-30T14:22:36;26.90;59.20
36498;DHT22;22513;51.222;6.480;2022-07-30T14:25:02;26.40;59.70
36498;DHT22;22513;51.222;6.480;2022-07-30T14:27:28;26.10;59.80
36498;DHT22;22513;51.222;6.480;2022-07-30T14:29:54;25.80;60.70
36498;DHT22;22513;51.222;6.480;2022-07-30T14:32:20;25.60;61.90
36498;DHT22;22513;51.222;6.480;2022-07-30T14:34:45;25.50;62.80
36498;DHT22;22513;51.222;6.480;2022-07-30T14:37:11;25.40;63.20
36498;DHT22;22513;51.222;6.480;2022-07-30T14:39:36;25.30;63.80
36498;DHT22;22513;51.222;6.480;2022-07-30T14:42:02;25.40;64.20
36498;DHT22;22513;51.222;6.480;2022-07-30T14:44:28;25.40;63.40
36498;DHT22;22513;51.222;6.480;2022-07-30T14:46:53;25.40;63.80
36498;DHT22;22513;51.222;6.480;2022-07-30T14:49:20;25.40;64.40
36498;DHT22;22513;51.222;6.480;2022-07-30T14:51:46;25.40;64.30
36498;DHT22;22513;51.222;6.480;2022-07-30T14:54:12;25.30;64.80
36498;DHT22;22513;51.222;6.480;2022-07-30T14:56:38;25.30;65.40
36498;DHT22;22513;51.222;6.480;2022-07-30T14:59:03;25.20;65.50
36498;DHT22;22513;51.222;6.480;2022-07-30T15:01:29;25.20;65.70
36498;DHT22;22513;51.222;6.480;2022-07-30T15:04:07;25.20;66.10
36498;DHT22;22513;51.222;6.480;2022-07-30T15:06:38;25.10;66.40
36498;DHT22;22513;51.222;6.480;2022-07-30T15:09:06;25.10;66.60
36498;DHT22;22513;51.222;6.480;2022-07-30T15:11:31;25.10;66.60
36498;DHT22;22513;51.222;6.480;2022-07-30T15:14:05;25.20;66.60
36498;DHT22;22513;51.222;6.480;2022-07-30T15:16:31;25.30;66.60
36498;DHT22;22513;51.222;6.480;2022-07-30T15:18:57;25.40;66.10
36498;DHT22;22513;51.222;6.480;2022-07-30T15:21:22;25.40;66.00
36498;DHT22;22513;51.222;6.480;2022-07-30T15:23:48;25.50;66.10
36498;DHT22;22513;51.222;6.480;2022-07-30T15:26:14;25.60;65.90
36498;DHT22;22513;51.222;6.480;2022-07-30T15:28:40;25.60;65.90
36498;DHT22;22513;51.222;6.480;2022-07-30T15:31:06;25.60;65.50
36498;DHT22;22513;51.222;6.480;2022-07-30T15:33:32;25.60;65.70
36498;DHT22;22513;51.222;6.480;2022-07-30T15:35:58;25.70;65.70
36498;DHT22;22513;51.222;6.480;2022-07-30T15:38:23;25.80;65.10
36498;DHT22;22513;51.222;6.480;2022-07-30T15:40:49;26.00;65.30
36498;DHT22;22513;51.222;6.480;2022-07-30T15:43:14;26.10;64.70
36498;DHT22;22513;51.222;6.480;2022-07-30T15:45:40;26.20;64.60
36498;DHT22;22513;51.222;6.480;2022-07-30T15:48:07;26.50;64.60
36498;DHT22;22513;51.222;6.480;2022-07-30T15:50:32;26.60;64.40
36498;DHT22;22513;51.222;6.480;2022-07-30T15:52:58;26.70;63.60
36498;DHT22;22513;51.222;6.480;2022-07-30T15:55:24;26.80;63.30
36498;DHT22;22513;51.222;6.480;2022-07-30T15:57:49;26.90;63.20
36498;DHT22;22513;51.222;6.480;2022-07-30T16:00:15;26.90;63.20
36498;DHT22;22513;51.222;6.480;2022-07-30T16:02:42;27.10;63.60
36498;DHT22;22513;51.222;6.480;2022-07-30T16:05:09;27.10;62.00
36498;DHT22;22513;51.222;6.480;2022-07-30T16:07:35;27.10;62.00
36498;DHT22;22513;51.222;6.480;2022-07-30T16:10:01;27.00;61.20
36498;DHT22;22513;51.222;6.480;2022-07-30T16:12:27;27.00;61.30
36498;DHT22;22513;51.222;6.480;2022-07-30T16:14:52;26.90;61.10
36498;DHT22;22513;51.222;6.480;2022-07-30T16:17:18;26.90;61.10